Time;durP1;ratioP1;P1;durP2;ratioP2;P2;SDS_P1;SDS_P2;PMS_P1;PMS_P2;Temp;Humidity;BMP_temperature;BMP_pressure;BME280_temperature;BME280_humidity;BME280_pressure;Samples;Min_cycle;Max_cycle;Signal;HPM_P1;HPM_P2
2022/12/06 00:01:20;;;;;;;11.68;7.50;;;;;;;-4.69;87.40;102256.91;5052913;28;20411;-70
2022/12/06 00:03:49;;;;;;;11.40;7.13;;;;;;;-4.82;88.25;102230.31;5052518;28;20036;-70
2022/12/06 00:06:18;;;;;;;9.63;6.32;;;;;;;-4.71;87.77;102233.56;5052363;28;20028;-69
2022/12/06 00:08:44;;;;;;;8.02;6.28;;;;;;;-4.63;88.10;102229.94;5052571;28;20112;-69
2022/12/06 00:11:11;;;;;;;8.68;6.35;;;;;;;-4.69;88.19;102226.59;5052492;28;20033;-70
2022/12/06 00:13:38;;;;;;;11.23;7.30;;;;;;;-4.59;88.08;102231.63;5052436;28;20089;-70
2022/12/06 00:16:06;;;;;;;10.85;6.57;;;;;;;-4.44;87.87;102239.09;5052350;28;20029;-70
2022/12/06 00:18:34;;;;;;;8.50;6.20;;;;;;;-4.49;86.67;102221.00;5052278;28;20060;-69
2022/12/06 00:21:10;;;;;;;12.38;8.82;;;;;;;-4.48;88.06;102224.44;5034228;28;20079;-70
2022/12/06 00:23:38;;;;;;;12.50;6.63;;;;;;;-4.43;87.24;102223.47;5052465;28;20041;-72
2022/12/06 00:26:04;;;;;;;11.10;7.45;;;;;;;-4.45;86.71;102221.78;5052201;28;20029;-69
2022/12/06 00:28:30;;;;;;;10.13;5.95;;;;;;;-4.46;87.68;102207.06;5052249;28;20489;-69
2022/12/06 00:30:58;;;;;;;14.27;7.32;;;;;;;-4.44;87.80;102200.94;5051907;28;20119;-70
2022/12/06 00:33:24;;;;;;;14.00;7.35;;;;;;;-4.42;87.55;102193.97;5052127;28;20032;-71
2022/12/06 00:36:05;;;;;;;11.37;7.47;;;;;;;-4.55;87.18;102199.47;5052136;28;20037;-71
2022/12/06 00:38:33;;;;;;;15.55;7.72;;;;;;;-4.66;88.44;102191.88;5034297;28;20033;-68
2022/12/06 00:41:02;;;;;;;9.13;6.18;;;;;;;-4.67;88.97;102192.75;5052056;28;20090;-69
2022/12/06 00:43:28;;;;;;;11.48;8.15;;;;;;;-4.66;88.68;102178.88;5051058;28;20033;-70
2022/12/06 00:45:54;;;;;;;11.93;8.38;;;;;;;-4.74;89.07;102173.84;5051787;28;20128;-70
2022/12/06 00:48:20;;;;;;;13.40;7.60;;;;;;;-4.85;89.89;102161.97;5051946;28;20029;-68
2022/12/06 00:50:45;;;;;;;11.07;7.37;;;;;;;-4.89;90.01;102166.34;5051961;28;20040;-70
2022/12/06 00:53:11;;;;;;;20.70;9.07;;;;;;;-4.83;90.24;102173.16;5051904;28;20032;-70
2022/12/06 00:55:36;;;;;;;12.53;8.27;;;;;;;-4.83;90.39;102170.56;5034123;28;20131;-70
2022/12/06 00:58:02;;;;;;;13.90;7.60;;;;;;;-4.93;91.42;102156.88;5051664;28;20025;-69
2022/12/06 01:00:28;;;;;;;12.17;8.53;;;;;;;-4.81;91.28;102155.81;5051656;28;20036;-68
2022/12/06 01:02:53;;;;;;;13.77;7.23;;;;;;;-4.86;91.40;102149.84;5051872;28;20052;-70
2022/12/06 01:05:19;;;;;;;12.87;9.53;;;;;;;-4.94;91.91;102157.78;5052128;28;20125;-70
2022/12/06 01:07:44;;;;;;;12.67;8.77;;;;;;;-5.07;92.56;102154.56;5051709;28;20100;-69
2022/12/06 01:10:10;;;;;;;10.93;8.13;;;;;;;-5.01;93.00;102146.66;5051685;28;20059;-70
2022/12/06 01:12:37;;;;;;;13.02;8.90;;;;;;;-5.00;92.66;102142.31;5033860;28;20376;-69
2022/12/06 01:15:03;;;;;;;11.93;8.20;;;;;;;-4.87;93.00;102142.94;5051915;28;20033;-70
2022/12/06 01:17:32;;;;;;;11.90;7.70;;;;;;;-4.83;92.68;102129.84;5052226;28;20071;-70
2022/12/06 01:19:57;;;;;;;14.25;8.85;;;;;;;-4.78;92.46;102128.00;5051931;28;20045;-69
2022/12/06 01:22:23;;;;;;;17.40;10.30;;;;;;;-4.74;92.29;102119.25;5051534;28;20033;-69
2022/12/06 01:24:49;;;;;;;15.70;9.27;;;;;;;-4.74;91.90;102111.47;5051727;28;20427;-69
2022/12/06 01:27:14;;;;;;;14.23;9.27;;;;;;;-4.86;91.78;102116.91;5051446;28;20064;-69
2022/12/06 01:29:40;;;;;;;13.27;9.30;;;;;;;-5.30;92.34;102045.91;5017145;28;20082;-69
2022/12/06 01:32:05;;;;;;;18.57;9.43;;;;;;;-5.06;93.86;102090.47;5051267;28;20039;-69
2022/12/06 01:34:31;;;;;;;18.80;8.67;;;;;;;-4.97;93.86;102098.06;5051671;28;20112;-71
2022/12/06 01:36:56;;;;;;;12.73;8.07;;;;;;;-4.97;93.63;102089.44;5052597;28;20029;-69
2022/12/06 01:39:22;;;;;;;12.43;7.80;;;;;;;-5.10;93.08;102060.25;5053506;28;20025;-69
2022/12/06 01:41:47;;;;;;;12.83;8.67;;;;;;;-4.94;93.41;102087.63;5034326;28;20024;-70
2022/12/06 01:44:37;;;;;;;16.57;10.07;;;;;;;-4.98;92.51;102078.19;5051536;28;20368;-69
2022/12/06 01:47:04;;;;;;;12.15;7.97;;;;;;;-5.13;91.69;102076.78;5051542;28;20489;-70
2022/12/06 01:49:33;;;;;;;12.32;8.48;;;;;;;-5.34;92.21;102059.84;5051584;28;20483;-70
2022/12/06 01:52:04;;;;;;;19.95;9.88;;;;;;;-5.35;92.65;102047.75;5051204;28;20025;-68
2022/12/06 01:54:31;;;;;;;12.70;8.00;;;;;;;-5.27;92.71;102055.41;5051335;28;20040;-70
2022/12/06 01:57:01;;;;;;;13.15;9.18;;;;;;;-5.18;92.89;102051.78;5055080;28;20026;-71
2022/12/06 01:59:28;;;;;;;12.73;9.05;;;;;;;-5.20;92.48;102045.75;5055236;28;20040;-70
2022/12/06 02:01:54;;;;;;;14.48;8.85;;;;;;;-5.18;91.84;102042.25;5054928;28;20112;-69
2022/12/06 02:04:21;;;;;;;15.73;10.32;;;;;;;-5.20;91.28;102053.56;5055315;28;20060;-69
2022/12/06 02:06:47;;;;;;;11.48;8.10;;;;;;;-5.18;91.69;102044.00;5054841;28;20029;-70
2022/12/06 02:09:14;;;;;;;10.23;8.02;;;;;;;-5.24;91.47;102033.69;5054542;28;20435;-70
2022/12/06 02:11:40;;;;;;;14.25;8.18;;;;;;;-5.20;91.25;102030.19;5054797;28;20112;-69
2022/12/06 02:14:10;;;;;;;15.68;9.20;;;;;;;-5.22;91.33;102026.72;5054789;28;20025;-70
2022/12/06 02:17:09;;;;;;;10.52;8.52;;;;;;;-5.14;91.73;102025.72;5055075;28;20024;-69
2022/12/06 02:19:57;;;;;;;15.40;9.60;;;;;;;-5.25;91.87;102006.88;5054711;28;20372;-69
2022/12/06 02:22:50;;;;;;;13.23;8.75;;;;;;;-5.19;91.61;102011.13;5054432;28;20435;-71
2022/12/06 02:25:46;;;;;;;14.23;8.48;;;;;;;-5.23;91.95;101997.31;5054568;28;20144;-70
2022/12/06 02:28:48;;;;;;;14.10;9.07;;;;;;;-5.17;91.62;102009.34;5003740;28;20053;-70
2022/12/06 02:31:22;;;;;;;14.70;9.15;;;;;;;-5.24;91.72;102002.53;5036623;28;20032;-69
2022/12/06 02:33:52;;;;;;;14.75;9.43;;;;;;;-5.23;91.60;101999.06;5054387;28;20153;-70
2022/12/06 02:36:30;;;;;;;14.45;8.98;;;;;;;-5.43;92.44;101992.53;5054165;28;20041;-71
2022/12/06 02:39:02;;;;;;;15.82;9.30;;;;;;;-5.54;92.71;101981.50;5054491;28;20025;-70
2022/12/06 02:41:34;;;;;;;14.80;9.75;;;;;;;-5.78;93.13;101943.06;5074748;28;20468;-70
2022/12/06 02:44:05;;;;;;;12.00;8.90;;;;;;;-5.65;93.41;101971.34;5040598;28;20131;-70
2022/12/06 02:46:35;;;;;;;16.00;10.63;;;;;;;-5.86;93.09;101913.81;5054202;28;20031;-69
2022/12/06 02:49:03;;;;;;;15.18;8.68;;;;;;;-5.55;93.65;101950.38;5054121;28;20052;-70
2022/12/06 02:51:31;;;;;;;15.48;9.35;;;;;;;-5.41;93.02;101953.56;5054223;28;20033;-70
2022/12/06 02:54:00;;;;;;;16.83;11.60;;;;;;;-5.40;93.35;101940.56;5054195;28;20032;-69
2022/12/06 02:56:26;;;;;;;;;;;;;;;-5.20;93.38;101947.06;5036462;28;20401;-72
2022/12/06 02:58:52;;;;;;;13.80;8.97;;;;;;;-5.22;92.05;101948.81;5054134;28;19951;-69
2022/12/06 03:01:23;;;;;;;17.97;9.97;;;;;;;-5.36;92.43;101946.53;5054363;28;20025;-70
2022/12/06 03:04:07;;;;;;;14.20;8.90;;;;;;;-5.39;92.59;101950.06;5055385;28;20288;-70
2022/12/06 03:06:39;;;;;;;20.00;10.52;;;;;;;-5.47;92.59;101949.38;5038693;28;20028;-69
2022/12/06 03:09:05;;;;;;;15.68;9.15;;;;;;;-5.54;93.14;101952.09;5055981;28;20040;-69
2022/12/06 03:11:39;;;;;;;15.77;9.73;;;;;;;-5.57;93.73;101947.81;5053662;28;20033;-71
2022/12/06 03:14:11;;;;;;;14.50;8.50;;;;;;;-5.59;93.21;101934.03;5053635;28;20021;-69
2022/12/06 03:16:47;;;;;;;19.63;10.13;;;;;;;-5.50;92.91;101939.00;5053091;28;20365;-71
2022/12/06 03:19:21;;;;;;;19.88;11.88;;;;;;;-5.46;93.30;101925.13;5053433;28;20507;-68
2022/12/06 03:22:02;;;;;;;20.00;9.52;;;;;;;-5.47;92.90;101933.78;5053187;28;20166;-70
2022/12/06 03:24:32;;;;;;;16.70;9.52;;;;;;;-5.63;92.74;101911.63;5053117;28;20057;-70
2022/12/06 03:27:03;;;;;;;15.75;9.60;;;;;;;-5.52;92.42;101933.00;5053406;28;20043;-69
2022/12/06 03:29:31;;;;;;;14.85;10.13;;;;;;;-5.54;92.15;101914.00;5053230;28;20031;-70
2022/12/06 03:32:01;;;;;;;14.23;8.77;;;;;;;-5.36;91.97;101937.00;5053873;28;20500;-70
2022/12/06 03:34:38;;;;;;;16.77;10.35;;;;;;;-5.40;91.38;101930.16;5035350;28;20032;-70
2022/12/06 03:37:06;;;;;;;13.65;8.48;;;;;;;-5.43;91.20;101929.38;5053144;28;20468;-69
2022/12/06 03:39:43;;;;;;;17.52;9.32;;;;;;;-5.43;91.87;101919.84;5053030;28;20473;-69
2022/12/06 03:42:09;;;;;;;15.93;10.07;;;;;;;-5.48;91.43;101915.66;5035172;28;20044;-70
2022/12/06 03:44:36;;;;;;;14.88;9.55;;;;;;;-5.51;92.07;101916.53;5052957;28;20039;-71
2022/12/06 03:47:09;;;;;;;24.65;12.40;;;;;;;-5.54;91.97;101920.94;5053056;28;20111;-71
2022/12/06 03:49:59;;;;;;;18.67;12.02;;;;;;;-5.61;92.79;101921.09;5053400;28;20035;-71
2022/12/06 03:52:27;;;;;;;15.30;11.10;;;;;;;-5.70;92.16;101912.63;5052206;28;20037;-70
2022/12/06 03:54:53;;;;;;;19.27;10.50;;;;;;;-5.75;92.57;101922.25;5052686;28;20025;-70
2022/12/06 03:57:18;;;;;;;18.63;10.60;;;;;;;-5.76;93.00;101920.56;5052499;28;20456;-70
2022/12/06 03:59:45;;;;;;;15.80;9.93;;;;;;;-5.74;93.13;101905.81;5052501;28;20027;-69
2022/12/06 04:02:11;;;;;;;14.05;11.23;;;;;;;-5.71;93.06;101911.78;5034924;28;20029;-71
2022/12/06 04:04:36;;;;;;;18.87;10.20;;;;;;;-5.70;92.24;101900.53;5052744;28;20045;-69
2022/12/06 04:07:02;;;;;;;15.67;11.03;;;;;;;-5.86;92.65;101877.50;5052677;28;20032;-70
2022/12/06 04:14:55;;;;;;;16.38;10.80;;;;;;;-5.78;92.47;101879.06;5053255;28;20033;-70
2022/12/06 04:20:09;;;;;;;17.20;11.85;;;;;;;-5.72;92.38;101865.13;5054021;28;20047;-75
2022/12/06 04:25:18;;;;;;;17.20;10.73;;;;;;;-5.74;92.96;101864.28;5053297;28;20029;-78
2022/12/06 04:38:46;;;;;;;22.40;12.30;;;;;;;-6.02;95.22;101845.88;5052390;28;20125;-72
2022/12/06 04:43:40;;;;;;;24.50;12.98;;;;;;;-6.30;94.81;101785.94;5034974;28;20017;-73
2022/12/06 04:43:58;;;;;;;23.55;13.02;;;;;;;-5.94;94.21;101846.56;5052936;28;20047;-74
2022/12/06 04:46:24;;;;;;;23.43;12.93;;;;;;;-6.04;95.25;101839.88;5056082;28;20021;-72
2022/12/06 04:48:49;;;;;;;21.00;13.20;;;;;;;-5.99;95.88;101844.06;5052033;28;20037;-73
2022/12/06 04:51:15;;;;;;;24.67;13.13;;;;;;;-6.02;95.54;101849.31;5051900;28;20113;-73
2022/12/06 04:53:41;;;;;;;21.23;11.37;;;;;;;-6.13;94.41;101814.97;5052183;28;20032;-73
2022/12/06 04:56:07;;;;;;;26.30;14.27;;;;;;;-6.11;95.69;101835.66;5052049;28;20040;-73
2022/12/06 04:58:33;;;;;;;24.67;12.23;;;;;;;-6.18;95.80;101828.91;5053032;28;20029;-75
2022/12/06 05:00:59;;;;;;;25.58;12.73;;;;;;;-6.13;95.86;101833.09;5054469;28;20120;-73
2022/12/06 05:03:24;;;;;;;25.43;11.67;;;;;;;-6.07;95.55;101837.31;5053350;28;20167;-73
2022/12/06 05:05:50;;;;;;;29.33;15.20;;;;;;;-6.22;95.74;101799.59;5053665;28;20462;-74
2022/12/06 05:08:15;;;;;;;23.53;13.23;;;;;;;-5.90;95.31;101842.16;5051975;28;20483;-75
2022/12/06 05:10:46;;;;;;;26.67;14.70;;;;;;;-5.86;94.68;101833.41;5051865;28;20319;-74
2022/12/06 05:13:12;;;;;;;21.38;12.48;;;;;;;-5.95;94.78;101827.56;5034344;28;20071;-74
2022/12/06 05:15:38;;;;;;;21.03;12.43;;;;;;;-5.81;95.37;101826.38;5052016;28;20061;-77
2022/12/06 05:18:06;;;;;;;25.40;13.80;;;;;;;-5.76;94.80;101822.81;5051983;28;20056;-74
2022/12/06 05:20:31;;;;;;;21.13;13.63;;;;;;;-5.78;94.22;101816.81;5051774;28;20132;-75
2022/12/06 05:22:57;;;;;;;29.33;13.37;;;;;;;-5.84;94.50;101814.31;5043568;28;20029;-75
2022/12/06 05:25:22;;;;;;;20.20;12.20;;;;;;;-5.88;94.80;101791.06;5031158;28;20442;-76
2022/12/06 05:28:14;;;;;;;32.93;16.83;;;;;;;-5.75;94.08;101805.50;5031350;28;20068;-77
2022/12/06 05:30:40;;;;;;;28.77;15.02;;;;;;;-5.85;94.09;101815.22;5029459;28;20046;-76
2022/12/06 05:33:05;;;;;;;26.60;14.87;;;;;;;-5.86;94.96;101805.72;5036345;28;20428;-78
2022/12/06 05:35:31;;;;;;;28.83;13.43;;;;;;;-5.95;94.21;101783.47;5036205;28;20075;-78
2022/12/06 05:37:56;;;;;;;26.40;12.57;;;;;;;-5.88;93.56;101801.44;5036167;28;20053;-76
2022/12/06 05:40:22;;;;;;;27.13;14.67;;;;;;;-5.81;93.79;101803.03;5036091;28;20029;-77
2022/12/06 05:42:48;;;;;;;25.27;14.00;;;;;;;-5.84;94.44;101801.34;5035549;28;20033;-73
2022/12/06 05:45:14;;;;;;;27.60;13.88;;;;;;;-5.83;94.40;101791.81;5035373;28;20037;-76
2022/12/06 05:47:39;;;;;;;30.27;16.43;;;;;;;-5.97;93.79;101767.09;5024030;28;20036;-74
2022/12/06 05:50:05;;;;;;;33.57;19.07;;;;;;;-5.81;93.58;101787.44;5054983;28;20021;-73
2022/12/06 05:52:31;;;;;;;35.28;15.30;;;;;;;-5.80;93.57;101789.16;5055591;28;20025;-74
2022/12/06 05:54:56;;;;;;;27.07;13.93;;;;;;;-5.90;93.67;101785.09;5055207;28;20032;-77
2022/12/06 05:57:22;;;;;;;27.33;14.40;;;;;;;-5.86;94.34;101779.78;5020987;28;20025;-69
2022/12/06 05:59:47;;;;;;;23.23;12.93;;;;;;;-5.90;94.11;101785.09;5054578;28;20429;-70
2022/12/06 06:02:13;;;;;;;24.53;12.67;;;;;;;-5.90;94.11;101777.31;5055059;28;20028;-71
2022/12/06 06:04:38;;;;;;;26.37;13.87;;;;;;;-5.87;94.89;101782.41;5054972;28;20119;-71
2022/12/06 06:07:04;;;;;;;26.67;14.60;;;;;;;-5.83;94.33;101781.44;5055188;28;20368;-71
2022/12/06 06:09:29;;;;;;;24.87;14.83;;;;;;;-5.83;94.31;101768.47;5053476;28;20040;-71
2022/12/06 06:11:55;;;;;;;25.40;12.77;;;;;;;-5.79;92.90;101762.31;5055009;28;20098;-72
2022/12/06 06:14:21;;;;;;;20.63;13.30;;;;;;;-5.90;92.83;101756.56;5054573;28;20113;-73
2022/12/06 06:16:47;;;;;;;24.67;12.15;;;;;;;-5.89;92.50;101766.88;5054650;28;20025;-71
2022/12/06 06:19:12;;;;;;;27.23;12.20;;;;;;;-5.94;92.57;101759.22;5054248;28;20040;-71
2022/12/06 06:21:38;;;;;;;22.20;12.50;;;;;;;-6.01;93.30;101754.22;5036770;28;20090;-72
2022/12/06 06:24:04;;;;;;;23.97;12.60;;;;;;;-5.99;92.98;101762.81;5054453;28;20037;-72
2022/12/06 06:26:29;;;;;;;33.83;15.13;;;;;;;-6.01;92.97;101755.06;5037356;28;20057;-72
2022/12/06 06:28:57;;;;;;;24.52;12.27;;;;;;;-5.97;91.99;101761.03;5054522;28;20037;-72
2022/12/06 06:31:23;;;;;;;23.70;11.97;;;;;;;-5.94;92.66;101751.44;5054556;28;20048;-73
2022/12/06 06:33:48;;;;;;;21.50;12.33;;;;;;;-5.90;92.07;101746.19;5054631;28;20356;-73
2022/12/06 06:36:13;;;;;;;28.70;15.97;;;;;;;-5.92;92.39;101743.63;5054658;28;20115;-72
2022/12/06 06:38:39;;;;;;;24.00;11.40;;;;;;;-5.89;92.36;101743.53;5054491;28;20017;-72
2022/12/06 06:41:06;;;;;;;22.70;11.60;;;;;;;-5.93;92.31;101735.00;5054002;28;20036;-71
2022/12/06 06:43:31;;;;;;;25.25;13.43;;;;;;;-5.89;92.03;101730.56;5053692;28;20036;-73
2022/12/06 06:46:02;;;;;;;21.67;10.77;;;;;;;-5.85;91.28;101739.97;5054131;28;20404;-71
2022/12/06 06:48:33;;;;;;;21.75;12.98;;;;;;;-5.90;91.33;101731.47;5054071;28;20029;-72
2022/12/06 06:51:04;;;;;;;17.40;10.02;;;;;;;-5.87;91.23;101735.72;5036184;28;20120;-73
2022/12/06 06:53:30;;;;;;;18.20;10.18;;;;;;;-5.84;90.33;101726.13;5053924;28;20078;-73
2022/12/06 06:55:56;;;;;;;20.17;11.00;;;;;;;-5.89;90.66;101721.97;5054164;28;20033;-72
2022/12/06 06:58:22;;;;;;;18.93;10.73;;;;;;;-5.91;91.69;101728.91;5054780;28;20028;-73
2022/12/06 07:00:54;;;;;;;16.52;11.02;;;;;;;-5.91;91.44;101728.91;5056222;28;20052;-71
2022/12/06 07:03:21;;;;;;;25.33;12.88;;;;;;;-5.85;92.22;101739.13;5055033;28;20033;-71
2022/12/06 07:05:57;;;;;;;23.27;13.40;;;;;;;-5.88;92.43;101705.47;5053864;28;20029;-72
2022/12/06 07:08:24;;;;;;;15.65;10.52;;;;;;;-5.66;91.52;101724.84;5053873;28;20488;-73
2022/12/06 07:10:50;;;;;;;19.17;11.02;;;;;;;-5.61;90.63;101734.22;5054054;28;20028;-73
2022/12/06 07:13:19;;;;;;;16.27;10.43;;;;;;;-5.71;90.56;101726.69;5053801;28;20408;-73
2022/12/06 07:15:45;;;;;;;12.57;9.65;;;;;;;-5.83;90.25;101721.78;5053779;28;20043;-71
2022/12/06 07:18:15;;;;;;;15.23;9.53;;;;;;;-5.88;91.20;101721.88;5019270;28;20053;-72
2022/12/06 07:20:42;;;;;;;16.52;10.32;;;;;;;-5.85;91.85;101739.97;5054244;28;20033;-74
2022/12/06 07:23:08;;;;;;;19.35;9.60;;;;;;;-5.87;92.27;101741.75;5053608;28;20068;-74
2022/12/06 07:25:33;;;;;;;15.83;10.87;;;;;;;-5.82;91.75;101741.66;5053398;28;20075;-73
2022/12/06 07:27:59;;;;;;;18.03;10.73;;;;;;;-5.89;91.78;101737.53;5035214;28;20052;-73
2022/12/06 07:30:26;;;;;;;18.83;11.40;;;;;;;-5.93;91.02;101727.22;5053514;28;20040;-71
2022/12/06 07:32:52;;;;;;;15.35;10.10;;;;;;;-5.89;91.33;101737.53;5053602;28;20028;-72
2022/12/06 07:35:18;;;;;;;18.63;11.18;;;;;;;-6.05;91.62;101722.31;5035708;28;20025;-74
2022/12/06 07:37:44;;;;;;;17.70;9.90;;;;;;;-6.02;91.86;101717.06;5053312;28;20380;-72
2022/12/06 07:40:11;;;;;;;15.13;10.82;;;;;;;-5.96;92.44;101735.06;5053275;28;20070;-73
2022/12/06 07:45:22;;;;;;;17.27;10.88;;;;;;;-5.84;91.98;101717.47;5053392;28;20388;-73
2022/12/06 07:47:47;;;;;;;18.57;10.97;;;;;;;-5.84;91.71;101726.13;5053531;28;20025;-73
2022/12/06 07:50:16;;;;;;;31.83;13.13;;;;;;;-5.84;91.79;101720.94;5053690;28;20021;-74
2022/12/06 07:52:43;;;;;;;19.63;10.90;;;;;;;-5.99;92.37;101701.44;5053216;28;20469;-71
2022/12/06 07:55:11;;;;;;;19.48;12.52;;;;;;;-5.80;93.41;101716.53;5054267;28;20033;-72
2022/12/06 07:57:40;;;;;;;24.02;12.07;;;;;;;-5.76;92.36;101718.19;5036728;28;20116;-72
2022/12/06 08:00:10;;;;;;;22.65;12.43;;;;;;;-5.76;93.23;101713.84;5003943;28;20029;-70
2022/12/06 08:02:37;;;;;;;23.10;12.73;;;;;;;-5.75;93.34;101710.34;5053796;28;20028;-71
2022/12/06 08:05:04;;;;;;;19.02;9.93;;;;;;;-5.81;93.49;101720.00;5053157;28;20120;-73
2022/12/06 08:07:31;;;;;;;19.55;11.35;;;;;;;-5.84;93.95;101712.28;5052497;28;20040;-71
2022/12/06 08:09:57;;;;;;;16.05;10.30;;;;;;;-5.73;94.01;101720.69;5040851;28;20040;-71
2022/12/06 08:12:24;;;;;;;19.50;12.30;;;;;;;-5.59;93.79;101710.81;5062347;28;20080;-71
2022/12/06 08:14:50;;;;;;;18.00;11.88;;;;;;;-5.48;93.56;101719.22;5064286;28;20036;-71
2022/12/06 08:17:15;;;;;;;18.43;12.07;;;;;;;-5.51;92.45;101714.09;5063597;28;20033;-72
2022/12/06 08:19:41;;;;;;;19.47;11.93;;;;;;;-5.90;93.25;101681.34;5062189;28;20392;-72
2022/12/06 08:22:07;;;;;;;18.33;10.80;;;;;;;-5.67;93.54;101710.16;5062446;28;20032;-71
2022/12/06 08:24:32;;;;;;;17.50;11.50;;;;;;;-5.73;92.91;101715.50;5055144;28;20082;-72
2022/12/06 08:27:01;;;;;;;16.97;11.67;;;;;;;-5.78;93.49;101713.03;5035925;28;20078;-72
2022/12/06 08:29:27;;;;;;;18.65;11.15;;;;;;;-5.71;92.76;101713.72;5053198;28;20033;-74
2022/12/06 08:31:54;;;;;;;16.95;10.85;;;;;;;-5.68;92.93;101713.66;5053130;28;20475;-72
2022/12/06 08:34:20;;;;;;;20.20;11.03;;;;;;;-5.67;93.37;101710.16;5054138;28;20513;-73
2022/12/06 08:36:45;;;;;;;21.48;11.10;;;;;;;-5.54;93.73;101714.16;5052265;28;20035;-74
2022/12/06 08:39:16;;;;;;;18.97;11.70;;;;;;;-5.53;92.81;101718.47;5035424;28;20025;-74
2022/12/06 08:41:54;;;;;;;19.80;11.75;;;;;;;-5.57;92.71;101698.66;5053386;28;20029;-73
2022/12/06 08:44:22;;;;;;;19.23;11.57;;;;;;;-5.49;92.83;101695.88;5018421;28;20044;-73
2022/12/06 08:46:49;;;;;;;15.35;10.23;;;;;;;-5.65;92.89;101692.81;5051462;28;20071;-72
2022/12/06 08:49:18;;;;;;;21.97;12.43;;;;;;;-5.65;92.68;101691.06;5052990;28;20599;-73
2022/12/06 08:51:46;;;;;;;20.05;11.10;;;;;;;-5.69;93.85;101693.78;5035075;28;20295;-73
2022/12/06 08:54:16;;;;;;;15.20;9.65;;;;;;;-5.66;94.00;101701.50;5053456;28;20045;-73
2022/12/06 08:56:42;;;;;;;21.40;11.52;;;;;;;-5.76;93.41;101697.44;5035191;28;20051;-73
2022/12/06 08:59:08;;;;;;;20.87;11.93;;;;;;;-5.82;93.65;101687.16;5053113;28;20286;-73
2022/12/06 09:01:35;;;;;;;18.17;11.40;;;;;;;-5.83;93.80;101688.06;5052690;28;20048;-73
2022/12/06 09:04:02;;;;;;;14.82;10.65;;;;;;;-5.85;93.51;101666.50;5055029;28;20473;-74
2022/12/06 09:06:28;;;;;;;22.90;12.60;;;;;;;-5.72;93.95;101678.28;5039731;28;20411;-76
2022/12/06 09:08:55;;;;;;;21.20;11.02;;;;;;;-5.61;94.10;101677.13;5055593;28;20354;-74
2022/12/06 09:11:21;;;;;;;19.35;10.90;;;;;;;-5.56;93.72;101648.47;5057006;28;20111;-75
2022/12/06 09:13:47;;;;;;;21.00;11.82;;;;;;;-5.31;92.95;101666.88;5056587;28;20411;-72
2022/12/06 09:16:19;;;;;;;16.70;10.93;;;;;;;-5.35;91.60;101668.69;5055911;28;20029;-72
2022/12/06 09:18:48;;;;;;;21.85;12.15;;;;;;;-5.37;91.88;101659.25;5038411;28;20420;-74
2022/12/06 09:21:45;;;;;;;18.13;10.52;;;;;;;-5.30;91.95;101656.44;5056407;28;20044;-71
2022/12/06 09:24:13;;;;;;;20.65;11.48;;;;;;;-5.33;91.82;101647.88;5039414;28;20064;-72
2022/12/06 09:26:39;;;;;;;18.23;10.52;;;;;;;-5.37;90.86;101654.06;5038469;28;20075;-74
2022/12/06 09:29:05;;;;;;;13.57;9.75;;;;;;;-5.49;90.92;101638.78;5056232;28;20132;-72
2022/12/06 09:31:32;;;;;;;15.67;9.63;;;;;;;-5.47;90.56;101647.41;5056430;28;20422;-73
2022/12/06 09:33:57;;;;;;;17.85;9.80;;;;;;;-5.50;91.14;101643.13;5056447;28;20492;-75
2022/12/06 09:36:25;;;;;;;15.53;11.60;;;;;;;-5.45;91.65;101646.47;5056722;28;20025;-74
2022/12/06 09:39:03;;;;;;;20.45;10.10;;;;;;;-5.35;93.20;101652.25;5038513;28;20128;-74
2022/12/06 09:42:06;;;;;;;17.80;9.82;;;;;;;-5.28;91.55;101652.94;5056063;28;20033;-74
2022/12/06 09:44:53;;;;;;;13.63;9.20;;;;;;;-5.30;91.31;101656.44;5055393;28;20047;-74
2022/12/06 09:47:24;;;;;;;16.38;10.48;;;;;;;-5.39;91.62;101645.44;5055678;28;20032;-73
2022/12/06 09:50:28;;;;;;;17.55;11.63;;;;;;;-5.46;91.61;101647.38;5056131;28;20039;-72
2022/12/06 09:53:23;;;;;;;15.50;10.15;;;;;;;-5.57;92.65;101646.75;5056102;28;20111;-74
2022/12/06 09:55:52;;;;;;;17.42;11.82;;;;;;;-5.56;92.95;101648.47;5037723;28;20025;-73
2022/12/06 09:58:31;;;;;;;13.77;9.52;;;;;;;-5.57;93.10;101646.75;5054298;28;20033;-74
2022/12/06 10:01:12;;;;;;;16.45;10.45;;;;;;;-5.47;93.67;101640.47;5038053;28;20036;-76
2022/12/06 10:03:50;;;;;;;18.98;13.27;;;;;;;-5.39;91.95;101641.13;5055911;28;20404;-73
2022/12/06 10:06:19;;;;;;;19.80;9.95;;;;;;;-5.48;91.02;101630.97;5055904;28;20028;-72
2022/12/06 10:09:25;;;;;;;16.83;10.25;;;;;;;-5.56;90.99;101627.69;5056460;28;20025;-75
2022/12/06 10:12:12;;;;;;;13.98;10.50;;;;;;;-5.56;91.25;101632.91;5055597;28;20568;-74
2022/12/06 10:14:40;;;;;;;14.65;9.52;;;;;;;-5.54;91.36;101631.09;5037425;28;20361;-73
2022/12/06 10:17:08;;;;;;;20.05;12.68;;;;;;;-5.42;91.66;101620.44;5054820;28;20074;-73
2022/12/06 10:20:16;;;;;;;19.30;10.23;;;;;;;-5.33;89.94;101625.38;5054880;28;20507;-75
2022/12/06 10:23:30;;;;;;;16.85;10.45;;;;;;;-5.39;89.15;101616.91;5037090;28;20498;-75
2022/12/06 10:26:10;;;;;;;17.67;9.77;;;;;;;-5.35;89.18;101618.50;5055234;28;20033;-73
2022/12/06 10:29:00;;;;;;;16.75;10.00;;;;;;;-5.39;89.02;101609.97;5054477;28;20029;-74
2022/12/06 10:31:41;;;;;;;19.65;10.93;;;;;;;-5.33;89.48;101604.59;5054007;28;20472;-74
2022/12/06 10:34:30;;;;;;;17.65;10.60;;;;;;;-5.38;88.21;101580.50;5054678;28;20059;-72
2022/12/06 10:37:06;;;;;;;16.30;10.45;;;;;;;-5.34;89.05;101589.91;5054814;28;20115;-74
2022/12/06 10:39:45;;;;;;;18.67;11.00;;;;;;;-5.38;88.90;101580.50;5054656;28;20036;-73
2022/12/06 10:42:23;;;;;;;16.25;10.93;;;;;;;-5.41;88.66;101580.59;5054892;28;20107;-74
2022/12/06 10:44:56;;;;;;;16.15;9.80;;;;;;;-5.30;89.10;101577.69;5054621;28;20114;-73
2022/12/06 10:47:33;;;;;;;18.50;10.63;;;;;;;-5.18;88.67;101587.75;5055029;28;20031;-73
2022/12/06 10:50:21;;;;;;;17.48;9.63;;;;;;;-5.21;88.38;101584.38;5055497;28;20033;-73
2022/12/06 10:53:03;;;;;;;15.10;10.77;;;;;;;-5.26;88.54;101573.25;5042096;28;20031;-73
2022/12/06 10:55:42;;;;;;;14.63;10.38;;;;;;;-5.31;89.01;101576.00;5065962;28;20029;-73
2022/12/06 10:58:24;;;;;;;16.35;10.60;;;;;;;-5.32;89.08;101575.13;5057663;28;20028;-73
2022/12/06 11:01:00;;;;;;;22.80;12.80;;;;;;;-5.37;89.46;101582.22;5056998;28;20025;-72
2022/12/06 11:04:00;;;;;;;16.63;11.55;;;;;;;-5.48;89.83;101563.50;5054991;28;20064;-73
2022/12/06 11:06:44;;;;;;;21.40;10.63;;;;;;;-5.47;89.67;101574.72;5054801;28;20035;-73
2022/12/06 11:09:22;;;;;;;15.73;10.55;;;;;;;-5.46;89.26;101572.09;5055403;28;20083;-73
2022/12/06 11:11:49;;;;;;;20.63;13.23;;;;;;;-5.46;90.52;101569.50;5055648;28;20055;-72
2022/12/06 11:14:25;;;;;;;30.75;13.80;;;;;;;-5.44;90.13;101559.91;5054160;28;20033;-73
2022/12/06 11:17:15;;;;;;;19.15;10.98;;;;;;;-5.42;90.58;101547.75;5054015;28;20037;-73
2022/12/06 11:19:47;;;;;;;22.63;13.40;;;;;;;-5.39;89.53;101549.41;5053527;28;20391;-74
2022/12/06 11:22:32;;;;;;;15.75;10.98;;;;;;;-5.37;89.90;101560.59;5053213;28;20499;-72
2022/12/06 11:25:05;;;;;;;17.02;10.75;;;;;;;-5.39;90.43;101547.66;5053459;28;20033;-74
2022/12/06 11:27:43;;;;;;;20.58;12.05;;;;;;;-5.41;89.37;101541.66;5052738;28;20028;-74
2022/12/06 11:30:15;;;;;;;17.17;11.63;;;;;;;-5.42;90.89;101537.34;5053523;28;20571;-73
2022/12/06 11:32:42;;;;;;;20.83;11.70;;;;;;;-5.41;90.48;101543.41;5053427;28;20024;-74
2022/12/06 11:35:33;;;;;;;18.58;12.48;;;;;;;-5.31;90.61;101540.50;5053529;28;20142;-73
2022/12/06 11:38:04;;;;;;;18.30;12.00;;;;;;;-5.30;89.98;101533.56;5052974;28;20040;-73
2022/12/06 11:40:34;;;;;;;16.25;10.80;;;;;;;-5.31;89.96;101537.03;5053584;28;20029;-74
2022/12/06 11:43:04;;;;;;;18.90;11.73;;;;;;;-5.38;89.51;101543.31;5053514;28;20033;-76
2022/12/06 11:45:38;;;;;;;19.13;10.80;;;;;;;-5.44;89.60;101528.75;5053277;28;20037;-73
2022/12/06 11:48:17;;;;;;;18.40;11.45;;;;;;;-5.44;89.01;101523.56;5053221;28;20036;-73
2022/12/06 11:50:43;;;;;;;;;;;;;;;-5.45;88.92;101531.41;5053406;28;20029;-72
2022/12/06 11:53:20;;;;;;;18.40;12.10;;;;;;;-5.57;89.91;101514.41;5053261;28;19966;-73